Utida, Utah
Current Conditions -  °F | °C
As of 8:51 PM on Saturday 25 Oct 2014 (Local Time) from KLGU Reporting Station
Clear Clear  
Wind Chill: 64°   Ceiling: Unl
Heat Index: 64°   Visibility: 10mi
Dew Point: 33°   Wind: 10mph
Humidity: 31%   Direction: 160°SSE
Pressure: 29.85"   Gusts: NA
Location:  41.9655°N, 112.049°W
Report Text: KLGU 260251Z AUTO 16009KT 10SM CLR 18/01 A2985 RMK AO2 SLP085 T01780006 56017 TSNO
Loading
Personal Weather Stations






























Interactive Weather Map
Tropical Storm Tracking
New forecast layout! Learn more

10-Day Weather Forecast

Advertisements
Track Severe Weather on mobile